Flight Track Log - Related Links

Times and Time Zones

All times are in EDT time to prevent confusion due to time zone crossing. See the N232CF flight status page for this flight to view local times or setup timezone preferences in your user account.

Time Position Orientation Groundspeed Altitude Reporting Facility
EDT Latitude Longitude Course Direction KTS MPH feet Rate Location/Type
Sun 04:55:11 PM 30.5069 -81.6703 69° East 198 228 600  Level Jacksonville Center
Sun 04:55:48 PM 30.5192 -81.6339 69° East 212 244 2,400 2,722 Climbing Jacksonville Center
Sun 04:56:48 PM 30.5561 -81.5586 60° Northeast 288 331 5,000 2,847 Climbing Jacksonville Center
Sun 04:57:46 PM 30.6094 -81.4806 52° Northeast 288 331 8,000 3,153 Climbing Jacksonville Center
Sun 04:58:46 PM 30.6525 -81.4100 55° Northeast 304 350 11,200 3,100 Climbing Jacksonville Center
Sun 04:59:46 PM 30.7078 -81.3269 52° Northeast 314 361 14,200 1,850 Climbing Jacksonville Center
Sun 05:00:46 PM 30.7631 -81.2342 55° Northeast 326 375 14,900 800 Climbing Jacksonville Center
Sun 05:01:46 PM 30.8461 -81.1892 25° Northeast 326 375 15,800 1,600 Climbing Jacksonville Center
Sun 05:02:46 PM 30.9400 -81.1922 358° North 310 357 18,100 2,500 Climbing Jacksonville Center
Sun 05:03:46 PM 31.0361 -81.1906 North 324 373 20,800 2,300 Climbing Jacksonville Center
Sun 05:04:46 PM 31.1383 -81.1936 359° North 351 404 22,700 2,000 Climbing Jacksonville Center
Sun 05:05:46 PM 31.2428 -81.1942 360° North 373 429 24,800 1,450 Climbing Jacksonville Center
Sun 05:06:46 PM 31.3533 -81.1919 North 390 449 25,600 1,050 Climbing Jacksonville Center
Sun 05:07:46 PM 31.4744 -81.1972 358° North 421 484 26,900 1,350 Climbing Jacksonville Center
Sun 05:08:46 PM 31.5978 -81.1950 North 439 505 28,300 1,050 Climbing Jacksonville Center
Sun 05:09:46 PM 31.7125 -81.1953 360° North 439 505 29,000 350 Climbing Jacksonville Center
Sun 05:10:46 PM 31.8608 -81.1975 359° North 471 542 29,000  Level Jacksonville Center
Sun 05:11:46 PM 31.9883 -81.2000 359° North 492 566 29,000  Level Jacksonville Center
Sun 05:12:46 PM 32.1297 -81.1606 13° North 497 572 29,000 1,000 Level Jacksonville Center
Sun 05:13:46 PM 32.2617 -81.0550 34° Northeast 491 565 31,000 1,000 Climbing Jacksonville Center
Sun 05:14:46 PM 32.3647 -80.9642 37° Northeast 512 589 31,000 150 Level Jacksonville Center
Sun 05:15:46 PM 32.4800 -80.8583 38° Northeast 522 601 31,300 750 Climbing Jacksonville Center
Sun 05:16:46 PM 32.6014 -80.7547 36° Northeast 527 606 32,500 850 Climbing Jacksonville Center
Sun 05:17:46 PM 32.7186 -80.6506 37° Northeast 527 606 33,000 250 Climbing Jacksonville Center
Sun 05:18:46 PM 32.8419 -80.5436 36° Northeast 533 613 33,000  Level Jacksonville Center
Sun 05:19:46 PM 32.9672 -80.4364 36° Northeast 544 626 33,000  Level Jacksonville Center
Sun 05:20:46 PM 33.1025 -80.3111 38° Northeast 557 641 33,000 850 Level Jacksonville Center
Sun 05:21:46 PM 33.2217 -80.2158 34° Northeast 555 639 34,700 1,500 Climbing Jacksonville Center
Sun 05:22:46 PM 33.3319 -80.1106 39° Northeast 539 620 36,000 1,300 Climbing Jacksonville Center
Sun 05:23:46 PM 33.4486 -80.0075 36° Northeast 527 606 37,300 2,450 Climbing Jacksonville Center
Sun 05:24:46 PM 33.5550 -79.9092 38° Northeast 507 583 40,900 1,850 Climbing Jacksonville Center
Sun 05:25:46 PM 33.6631 -79.8108 37° Northeast 492 566 41,000 50 Climbing Jacksonville Center
Sun 05:26:46 PM 33.7753 -79.7094 37° Northeast 492 566 41,000 -50 Level Jacksonville Center
Sun 05:27:46 PM 33.8917 -79.6053 37° Northeast 505 581 40,900  Descending Jacksonville Center
Sun 05:28:46 PM 34.0056 -79.4983 38° Northeast 511 588 41,000 36 Climbing Jacksonville Center
Sun 05:30:34 PM 34.2206 -79.3039 37° Northeast 504 580 41,000  Level Washington Center
Sun 05:31:35 PM 34.3422 -79.2214 29° Northeast 533 613 41,000  Level Washington Center
Sun 05:32:35 PM 34.4739 -79.1439 26° Northeast 533 613 41,000  Level Washington Center
Sun 05:33:35 PM 34.6075 -79.0667 25° Northeast 528 608 41,000  Level Washington Center
Sun 05:34:33 PM 34.7433 -78.9864 26° Northeast 528 608 41,000 -153 Level Washington Center
Sun 05:35:33 PM 34.8792 -78.9086 25° Northeast 528 608 40,700 -732 Descending Washington Center
Sun 05:36:36 PM 35.0106 -78.8328 25° Northeast 528 608 39,500 -1,488 Descending Washington Center
Sun 05:37:34 PM 35.1442 -78.7544 26° Northeast 528 608 37,700 -1,983 Descending Washington Center
Sun 05:38:34 PM 35.2775 -78.6756 26° Northeast 528 608 35,600 -2,550 Descending Washington Center
Sun 05:39:34 PM 35.4322 -78.5822 26° Northeast 543 625 32,600 -2,579 Descending Washington Center
Sun 05:40:35 PM 35.5614 -78.5053 26° Northeast 530 610 30,400 -1,800 Descending Washington Center
Sun 05:41:34 PM 35.6969 -78.4283 25° Northeast 532 612 29,000 -706 Descending Washington Center
Sun 05:42:34 PM 35.8197 -78.3533 26° Northeast 515 593 29,000  Level Washington Center
Sun 05:43:35 PM 35.9464 -78.2783 26° Northeast 497 572 29,000  Level Washington Center
Sun 05:44:35 PM 36.0756 -78.2031 25° Northeast 497 572 29,000  Level Washington Center
Sun 05:45:35 PM 36.2086 -78.1225 26° Northeast 508 585 29,000  Level Washington Center
Sun 05:46:33 PM 36.3417 -78.0417 26° Northeast 513 590 29,000  Level Washington Center
Sun 05:47:33 PM 36.4706 -77.9631 26° Northeast 513 590 29,000 -99 Level Washington Center
Sun 05:48:34 PM 36.5911 -77.8839 28° Northeast 520 598 28,800 -496 Descending Washington Center
Sun 05:49:34 PM 36.7283 -77.8025 25° Northeast 530 610 28,000 -400 Descending Washington Center
Sun 05:50:34 PM 36.8633 -77.7181 27° Northeast 535 616 28,000 -446 Level Washington Center
Sun 05:51:35 PM 36.9981 -77.6386 25° Northeast 535 616 27,100 -958 Descending Washington Center
Sun 05:52:33 PM 37.1289 -77.5533 27° Northeast 535 616 26,100 -1,119 Descending Washington Center
Sun 05:53:33 PM 37.2553 -77.4758 26° Northeast 523 602 24,900 -1,636 Descending Washington Center
Sun 05:54:34 PM 37.3797 -77.3978 26° Northeast 509 586 22,800 -1,438 Descending Washington Center
Sun 05:55:34 PM 37.5058 -77.3300 23° Northeast 489 563 22,000 -694 Descending Washington Center
Sun 05:56:35 PM 37.6439 -77.2914 12° North 466 536 21,400 -1,587 Descending Washington Center
Sun 05:57:35 PM 37.7717 -77.2653 North 466 536 18,800 -2,542 Descending Washington Center
Sun 05:58:33 PM 37.8908 -77.2389 10° North 454 522 16,400 -1,966 Descending Washington Center
Sun 05:59:34 PM 38.0122 -77.2153 North 440 506 14,900 -689 Descending Washington Center
Sun 06:00:35 PM 38.1083 -77.1989 North 414 476 15,000 101 Climbing Washington Center
Sun 06:01:33 PM 38.2214 -77.1694 12° North 401 461 15,100  Climbing Washington Center
Sun 06:02:34 PM 38.3278 -77.1533 North 401 461 15,000 -149 Descending Washington Center
Sun 06:03:34 PM 38.4392 -77.0919 23° Northeast 396 456 14,800 -1,438 Descending Washington Center
Sun 06:04:35 PM 38.5156 -76.9794 49° Northeast 399 459 12,100 -2,017 Descending Washington Center
Sun 06:05:33 PM 38.5894 -76.8906 43° Northeast 386 444 10,800 -1,109 Descending Washington Center
Sun 06:06:34 PM 38.6528 -76.8119 44° Northeast 344 396 9,900 -942 Descending Washington Center
Sun 06:07:34 PM 38.7100 -76.7331 47° Northeast 314 361 8,900 -1,289 Descending Washington Center
Sun 06:08:35 PM 38.7547 -76.6325 60° Northeast 309 356 7,300 -1,463 Descending Washington Center
Sun 06:09:37 PM 38.8333 -76.5500 39° Northeast 283 326 5,900 -1,190 Descending Potomac TRACON
Sun 06:10:31 PM 38.8833 -76.5000 38° Northeast 288 331 5,000 -947 Descending Potomac TRACON
Sun 06:11:31 PM 38.9667 -76.4500 25° Northeast 284 327 4,100 -1,050 Descending Potomac TRACON
Sun 06:12:31 PM 39.0333 -76.4167 21° North 281 323 2,900 -550 Descending Potomac TRACON
Sun 06:13:31 PM 39.1167 -76.4167 360° North 277 319 3,000 -300 Climbing Potomac TRACON
Sun 06:14:31 PM 39.1833 -76.4167 360° North 277 319 2,300 -645 Descending Potomac TRACON
Sun 06:15:32 PM 39.2500 -76.4000 11° North 212 244 1,700 -793 Descending Potomac TRACON
Sun 06:16:32 PM 39.3000 -76.3833 14° North 167 192 700 -1,000 Descending Potomac TRACON
Sun 06:18:00 PM 39.3167 -76.4000 25° Northeast  Level FlightAware Approximate
Sun 06:25:00 PM 39.3257 -76.4138 25° Northeast  Level Estimated
Sun 06:26:00 PM 39.3257 -76.4138 25° Northeast  Level Estimated
Sun 06:27:00 PM 39.3257 -76.4138 25° Northeast  Level Estimated
Sun 06:28:00 PM 39.3257 -76.4138 25° Northeast  Level Estimated
Sun 06:29:00 PM 39.3257 -76.4138 25° Northeast  Level Estimated
Sun 06:30:00 PM 39.3257 -76.4138 25° Northeast  Level Estimated
Sun 06:31:00 PM 39.3257 -76.4138 25° Northeast  Level Estimated
Sun 06:32:00 PM 39.3257 -76.4138 25° Northeast  Level Estimated
Sun 06:33:00 PM 39.3257 -76.4138 25° Northeast  Level Estimated
Sun 06:34:00 PM 39.3257 -76.4138 25° Northeast  Level Estimated

Login

Don't have an account? Register now (free) for customized features, flight alerts, and more!